Time;durP1;ratioP1;P1;durP2;ratioP2;P2;SDS_P1;SDS_P2;PMS_P1;PMS_P2;Temp;Humidity;BMP_temperature;BMP_pressure;BME280_temperature;BME280_humidity;BME280_pressure;Samples;Min_cycle;Max_cycle;Signal;HPM_P1;HPM_P2
2023/07/09 00:00:51;;;;;;;13.60;6.97;;;19.60;99.90;;;;;;5021056;28;20038;-77
2023/07/09 00:03:18;;;;;;;11.27;5.80;;;19.60;99.90;;;;;;5029091;28;20091;-81
2023/07/09 00:05:47;;;;;;;14.63;6.63;;;19.60;99.90;;;;;;5031827;28;20037;-78
2023/07/09 00:08:29;;;;;;;14.88;7.38;;;19.50;99.90;;;;;;5018001;28;20063;-80
2023/07/09 00:10:56;;;;;;;12.23;7.35;;;19.50;99.90;;;;;;5013806;28;20037;-83
2023/07/09 00:13:24;;;;;;;15.52;7.47;;;19.50;99.90;;;;;;5026741;28;20030;-78
2023/07/09 00:15:51;;;;;;;12.13;6.90;;;19.50;99.90;;;;;;5026588;28;20052;-77
2023/07/09 00:18:17;;;;;;;18.45;8.43;;;19.50;99.90;;;;;;5029235;28;20025;-81
2023/07/09 00:20:43;;;;;;;16.42;8.40;;;19.50;99.90;;;;;;5032261;28;20045;-82
2023/07/09 00:23:13;;;;;;;10.82;6.50;;;19.40;99.90;;;;;;5013598;28;20029;-78
2023/07/09 00:25:43;;;;;;;13.50;7.05;;;19.40;99.90;;;;;;5032081;28;20100;-79
2023/07/09 00:28:14;;;;;;;15.07;7.43;;;19.40;99.90;;;;;;5031512;28;20113;-79
2023/07/09 00:30:40;;;;;;;14.43;7.60;;;19.30;99.90;;;;;;5003414;28;20041;-83
2023/07/09 00:33:14;;;;;;;12.65;7.38;;;19.20;99.90;;;;;;5017134;28;20013;-81
2023/07/09 00:35:41;;;;;;;12.00;7.40;;;19.20;99.90;;;;;;5029547;28;20091;-76
2023/07/09 00:38:22;;;;;;;14.75;7.65;;;19.20;99.90;;;;;;5008813;28;20491;-78
2023/07/09 00:40:59;;;;;;;14.65;7.38;;;19.20;99.90;;;;;;5027427;28;20457;-83
2023/07/09 00:43:29;;;;;;;15.23;7.38;;;19.20;99.90;;;;;;4985630;28;20064;-77
2023/07/09 00:46:20;;;;;;;13.10;6.40;;;19.20;99.90;;;;;;5000639;28;20084;-82
2023/07/09 00:48:57;;;;;;;15.38;7.20;;;19.10;99.90;;;;;;5003510;28;20066;-81
2023/07/09 00:51:24;;;;;;;15.40;7.15;;;19.00;99.90;;;;;;5020303;28;20044;-78
2023/07/09 00:53:53;;;;;;;17.30;9.38;;;19.00;99.90;;;;;;5016838;28;20037;-83
2023/07/09 00:56:32;;;;;;;11.50;7.22;;;18.90;99.90;;;;;;5035629;28;20070;-82
2023/07/09 00:59:04;;;;;;;13.98;8.05;;;18.80;99.90;;;;;;5018363;28;20033;-83
2023/07/09 01:01:31;;;;;;;14.18;8.02;;;18.80;99.90;;;;;;5030528;28;20029;-77
2023/07/09 01:03:59;;;;;;;15.45;6.97;;;18.60;99.90;;;;;;5037863;28;20025;-81
2023/07/09 01:06:35;;;;;;;15.23;7.20;;;18.60;99.90;;;;;;5038083;28;20057;-77
2023/07/09 01:09:03;;;;;;;15.30;8.00;;;18.60;99.90;;;;;;5013300;28;20053;-82
2023/07/09 01:11:30;;;;;;;18.45;9.07;;;18.50;99.90;;;;;;5038202;28;20068;-77
2023/07/09 01:14:01;;;;;;;16.80;9.05;;;18.50;99.90;;;;;;5038197;28;20029;-82
2023/07/09 01:16:32;;;;;;;13.50;7.32;;;18.40;99.90;;;;;;5014320;28;20022;-77
2023/07/09 01:18:58;;;;;;;15.40;7.07;;;18.40;99.90;;;;;;5037556;28;20033;-80
2023/07/09 01:21:24;;;;;;;14.00;7.43;;;18.40;99.90;;;;;;5018974;28;20112;-82
2023/07/09 01:23:51;;;;;;;17.27;8.68;;;18.40;99.90;;;;;;5019784;28;20120;-82
2023/07/09 01:26:20;;;;;;;19.98;7.70;;;18.40;99.90;;;;;;5027209;28;20022;-77
2023/07/09 01:28:47;;;;;;;14.30;7.10;;;18.40;99.90;;;;;;5037495;28;20374;-77
2023/07/09 01:31:14;;;;;;;13.75;8.05;;;18.40;99.90;;;;;;5036769;28;20028;-81
2023/07/09 01:33:44;;;;;;;14.88;7.50;;;18.30;99.90;;;;;;5037284;28;20048;-82
2023/07/09 01:36:23;;;;;;;18.60;7.97;;;18.30;99.90;;;;;;5036710;28;20061;-81
2023/07/09 01:38:51;;;;;;;13.23;7.47;;;18.30;99.90;;;;;;5024581;28;20120;-81
2023/07/09 01:41:19;;;;;;;13.38;7.38;;;18.30;99.90;;;;;;5018694;28;20125;-81
2023/07/09 01:43:45;;;;;;;15.40;7.75;;;18.30;99.90;;;;;;5013265;28;20029;-82
2023/07/09 01:46:12;;;;;;;13.82;7.25;;;18.30;99.90;;;;;;5029853;28;20078;-82
2023/07/09 01:48:41;;;;;;;13.93;7.50;;;18.30;99.90;;;;;;5013698;28;20040;-81
2023/07/09 01:51:11;;;;;;;15.00;7.70;;;18.20;99.90;;;;;;5037123;28;20390;-78
2023/07/09 01:53:39;;;;;;;14.85;7.00;;;18.20;99.90;;;;;;5017328;28;20026;-77
2023/07/09 01:56:07;;;;;;;12.88;7.10;;;18.10;99.90;;;;;;5033760;28;20017;-81
2023/07/09 01:58:34;;;;;;;13.13;6.85;;;18.20;99.90;;;;;;4995092;28;20037;-79
2023/07/09 02:01:00;;;;;;;15.73;7.68;;;18.10;99.90;;;;;;5015941;28;20044;-79
2023/07/09 02:03:26;;;;;;;14.63;7.78;;;18.10;99.90;;;;;;5033476;28;20044;-81
2023/07/09 02:05:55;;;;;;;13.48;7.53;;;18.20;99.90;;;;;;5015823;28;20477;-81
2023/07/09 02:08:21;;;;;;;11.48;6.95;;;18.10;99.90;;;;;;5033424;28;20064;-77
2023/07/09 02:10:50;;;;;;;11.68;6.30;;;18.10;99.90;;;;;;5033647;28;20053;-80
2023/07/09 02:13:16;;;;;;;14.10;6.65;;;18.00;99.90;;;;;;5015366;28;20493;-80
2023/07/09 02:15:43;;;;;;;13.27;6.78;;;18.00;99.90;;;;;;5015600;28;20029;-77
2023/07/09 02:18:11;;;;;;;14.32;7.25;;;17.90;99.90;;;;;;5015526;28;20112;-79
2023/07/09 02:20:37;;;;;;;11.15;5.97;;;17.90;99.90;;;;;;5015432;28;20100;-81
2023/07/09 02:23:05;;;;;;;13.30;7.25;;;17.90;99.90;;;;;;5033262;28;20517;-81
2023/07/09 02:25:31;;;;;;;14.05;6.85;;;17.90;99.90;;;;;;5026184;28;20026;-80
2023/07/09 02:27:58;;;;;;;15.65;8.05;;;17.90;99.90;;;;;;5030225;28;20017;-81
2023/07/09 02:30:23;;;;;;;17.33;6.72;;;17.80;99.90;;;;;;5000192;28;20114;-80
2023/07/09 02:32:49;;;;;;;21.15;7.57;;;17.90;99.90;;;;;;5013526;28;20178;-77
2023/07/09 02:35:16;;;;;;;13.45;7.53;;;17.80;99.90;;;;;;5013387;28;20037;-81
2023/07/09 02:37:42;;;;;;;14.82;7.15;;;17.80;99.90;;;;;;5013343;28;20057;-77
2023/07/09 02:40:11;;;;;;;10.85;6.90;;;17.80;99.90;;;;;;4995527;28;20483;-78
2023/07/09 02:42:38;;;;;;;13.95;7.80;;;17.70;99.90;;;;;;4980126;28;20120;-77
2023/07/09 02:45:04;;;;;;;15.70;8.20;;;17.60;99.90;;;;;;5019937;28;20025;-79
2023/07/09 02:47:31;;;;;;;13.38;7.72;;;17.50;99.90;;;;;;5015114;28;20040;-78
2023/07/09 02:49:59;;;;;;;11.80;7.55;;;17.50;99.90;;;;;;5015173;28;20490;-80
2023/07/09 02:52:25;;;;;;;13.07;8.73;;;17.40;99.90;;;;;;5015322;28;20068;-80
2023/07/09 02:54:50;;;;;;;14.43;8.35;;;17.40;99.90;;;;;;5014764;28;20140;-77
2023/07/09 02:57:16;;;;;;;16.70;8.32;;;17.30;99.90;;;;;;5032546;28;20017;-80
2023/07/09 02:59:42;;;;;;;17.15;8.63;;;17.30;99.90;;;;;;5013885;28;20045;-78
2023/07/09 03:02:09;;;;;;;17.88;8.48;;;17.20;99.90;;;;;;5001961;28;20037;-80
2023/07/09 03:04:34;;;;;;;15.40;8.10;;;17.10;99.90;;;;;;5014789;28;20091;-79
2023/07/09 03:07:01;;;;;;;15.82;8.18;;;17.10;99.90;;;;;;5014447;28;20049;-76
2023/07/09 03:09:27;;;;;;;14.00;8.15;;;17.30;99.90;;;;;;5014268;28;20030;-81
2023/07/09 03:11:55;;;;;;;14.23;7.75;;;17.10;99.90;;;;;;5032507;28;20057;-81
2023/07/09 03:14:21;;;;;;;16.05;8.65;;;17.10;99.90;;;;;;5014514;28;20036;-80
2023/07/09 03:16:46;;;;;;;13.38;8.35;;;17.10;99.90;;;;;;5028031;28;20026;-80
2023/07/09 03:19:12;;;;;;;15.15;8.55;;;17.10;99.90;;;;;;5032480;28;20025;-79
2023/07/09 03:21:38;;;;;;;16.30;7.93;;;17.20;99.90;;;;;;5032042;28;20478;-79
2023/07/09 03:24:04;;;;;;;19.40;9.23;;;17.20;99.90;;;;;;5032241;28;20032;-77
2023/07/09 03:26:30;;;;;;;13.82;7.80;;;17.30;99.90;;;;;;5004569;28;20493;-80
2023/07/09 03:28:56;;;;;;;15.07;8.27;;;17.30;99.90;;;;;;5014549;28;20025;-79
2023/07/09 03:31:22;;;;;;;17.55;8.20;;;17.40;99.90;;;;;;5031925;28;20029;-79
2023/07/09 03:33:49;;;;;;;16.35;8.90;;;17.50;99.90;;;;;;5031900;28;20116;-78
2023/07/09 03:36:15;;;;;;;19.35;7.93;;;17.60;99.90;;;;;;5031577;28;20474;-81
2023/07/09 03:38:41;;;;;;;12.77;7.57;;;17.70;99.90;;;;;;5032060;28;20044;-80
2023/07/09 03:41:06;;;;;;;14.75;7.43;;;17.80;99.90;;;;;;5031711;28;20044;-81
2023/07/09 03:43:32;;;;;;;14.75;7.97;;;17.90;99.90;;;;;;5031889;28;20030;-76
2023/07/09 03:45:58;;;;;;;15.40;7.40;;;18.00;99.90;;;;;;5031927;28;20160;-77
2023/07/09 03:48:24;;;;;;;14.95;7.35;;;18.30;99.90;;;;;;5013924;28;20029;-79
2023/07/09 03:50:50;;;;;;;11.68;7.20;;;19.40;99.90;;;;;;5031943;28;20030;-77
2023/07/09 03:53:16;;;;;;;10.65;6.32;;;;;;;;;;5031944;28;20025;-81
2023/07/09 03:55:46;;;;;;;15.75;7.03;;;20.90;99.90;;;;;;5013850;28;20434;-77
2023/07/09 03:58:12;;;;;;;11.95;7.15;;;21.10;99.90;;;;;;5032030;28;20112;-78
2023/07/09 04:00:37;;;;;;;11.95;6.03;;;21.60;99.90;;;;;;5013525;28;20459;-79
2023/07/09 04:03:03;;;;;;;11.60;6.70;;;22.10;99.90;;;;;;5019142;28;20024;-77
2023/07/09 04:05:29;;;;;;;13.13;6.88;;;22.70;99.90;;;;;;5030905;28;20025;-79
2023/07/09 04:07:55;;;;;;;12.98;6.70;;;23.40;99.90;;;;;;5031849;28;20034;-77
2023/07/09 04:10:21;;;;;;;14.77;6.20;;;;;;;;;;5031415;28;20032;-81
2023/07/09 04:12:47;;;;;;;14.43;6.15;;;24.20;97.40;;;;;;5031709;28;20092;-78
2023/07/09 04:15:13;;;;;;;10.77;6.13;;;24.80;95.80;;;;;;5030912;28;20113;-82
2023/07/09 04:17:40;;;;;;;16.73;6.05;;;25.00;94.80;;;;;;5031296;28;20113;-79
2023/07/09 04:20:07;;;;;;;13.88;6.43;;;24.90;94.30;;;;;;5012411;28;20095;-79
2023/07/09 04:22:34;;;;;;;14.73;6.57;;;25.20;94.40;;;;;;5031232;28;20060;-78
2023/07/09 04:25:02;;;;;;;13.82;7.07;;;25.70;93.10;;;;;;5028572;28;20030;-76
2023/07/09 04:27:28;;;;;;;11.20;6.30;;;25.60;92.30;;;;;;5024299;28;20091;-81
2023/07/09 04:29:54;;;;;;;12.07;6.53;;;25.70;92.00;;;;;;5030906;28;20033;-78
2023/07/09 04:32:21;;;;;;;10.93;6.35;;;26.30;91.60;;;;;;5031082;28;20022;-81
2023/07/09 04:34:47;;;;;;;13.90;6.50;;;26.40;91.40;;;;;;5031117;28;20033;-81
2023/07/09 04:37:16;;;;;;;12.88;6.60;;;26.80;90.90;;;;;;5030923;28;20052;-80
2023/07/09 04:39:42;;;;;;;10.75;6.05;;;26.90;89.90;;;;;;5030751;28;20196;-81
2023/07/09 04:42:12;;;;;;;12.60;6.30;;;27.50;90.10;;;;;;5031113;28;20033;-78
2023/07/09 04:44:38;;;;;;;10.90;5.85;;;28.20;87.90;;;;;;5030917;28;20037;-81
2023/07/09 04:47:04;;;;;;;10.88;5.88;;;29.20;87.40;;;;;;5031017;28;20033;-79
2023/07/09 04:49:30;;;;;;;8.60;5.38;;;28.80;86.30;;;;;;5030747;28;20029;-82
2023/07/09 04:51:56;;;;;;;11.05;6.57;;;29.20;85.10;;;;;;5013105;28;20030;-81
2023/07/09 04:54:26;;;;;;;12.43;6.35;;;29.40;84.40;;;;;;5030817;28;20042;-81
2023/07/09 04:56:52;;;;;;;13.63;5.65;;;30.10;84.10;;;;;;5031175;28;20018;-81
2023/07/09 04:59:19;;;;;;;14.27;6.55;;;30.30;83.40;;;;;;5030852;28;20030;-76
2023/07/09 05:01:45;;;;;;;10.63;5.63;;;30.30;82.60;;;;;;5030232;28;20494;-76
2023/07/09 05:04:11;;;;;;;12.88;6.53;;;28.40;83.40;;;;;;5031147;28;20037;-81
2023/07/09 05:06:37;;;;;;;13.05;5.95;;;26.80;85.10;;;;;;5030741;28;20025;-79
2023/07/09 05:09:03;;;;;;;12.75;6.00;;;26.80;87.30;;;;;;5013483;28;20117;-77
2023/07/09 05:11:29;;;;;;;13.20;6.65;;;26.40;88.00;;;;;;5029958;28;20117;-81
2023/07/09 05:13:55;;;;;;;12.40;6.55;;;26.20;89.30;;;;;;5009341;28;20108;-77
2023/07/09 05:16:21;;;;;;;16.73;7.45;;;25.80;90.20;;;;;;5031086;28;20049;-81
2023/07/09 05:18:46;;;;;;;12.63;6.90;;;25.70;90.30;;;;;;5028922;28;20030;-80
2023/07/09 05:21:13;;;;;;;12.45;6.78;;;25.60;89.50;;;;;;5025801;28;20051;-76
2023/07/09 05:23:38;;;;;;;13.55;6.93;;;25.50;90.70;;;;;;5031626;28;20116;-80
2023/07/09 05:26:04;;;;;;;13.38;6.95;;;25.40;90.90;;;;;;5020483;28;20053;-81
2023/07/09 05:28:32;;;;;;;14.40;7.00;;;25.20;91.30;;;;;;5031155;28;20017;-81
2023/07/09 05:30:58;;;;;;;14.68;7.22;;;25.10;91.80;;;;;;5032197;28;20053;-82
2023/07/09 05:33:24;;;;;;;13.38;6.55;;;25.10;92.00;;;;;;5035038;28;20068;-83
2023/07/09 05:35:50;;;;;;;15.27;6.70;;;25.00;92.50;;;;;;5035107;28;20438;-81
2023/07/09 05:38:16;;;;;;;17.20;6.78;;;24.90;93.10;;;;;;5031120;28;20045;-78
2023/07/09 05:40:43;;;;;;;16.23;7.30;;;25.20;92.70;;;;;;5034125;28;20051;-81
2023/07/09 05:43:10;;;;;;;17.40;6.97;;;25.20;92.80;;;;;;5016365;28;20025;-78
2023/07/09 05:45:38;;;;;;;14.65;7.18;;;25.30;93.70;;;;;;5027974;28;20082;-79
2023/07/09 05:48:04;;;;;;;17.52;6.95;;;25.40;93.70;;;;;;5016209;28;20109;-81
2023/07/09 05:50:32;;;;;;;15.82;8.23;;;25.50;93.20;;;;;;5017040;28;20048;-76
2023/07/09 05:52:58;;;;;;;14.48;7.43;;;25.50;92.60;;;;;;5035184;28;20022;-82
2023/07/09 05:55:24;;;;;;;13.50;6.97;;;25.60;93.60;;;;;;5021063;28;20120;-81
2023/07/09 05:57:50;;;;;;;17.60;7.18;;;25.70;93.90;;;;;;5033626;28;20079;-77
2023/07/09 06:00:16;;;;;;;14.75;6.57;;;25.60;93.20;;;;;;5033802;28;20142;-75
2023/07/09 06:02:42;;;;;;;13.13;6.65;;;25.80;94.50;;;;;;5012682;28;20399;-82
2023/07/09 06:05:11;;;;;;;10.63;6.32;;;25.80;93.30;;;;;;5026023;28;20029;-82
2023/07/09 06:07:38;;;;;;;13.50;6.45;;;25.80;94.60;;;;;;5034274;28;20017;-80
2023/07/09 06:10:08;;;;;;;12.82;6.47;;;26.00;92.30;;;;;;5034305;28;20026;-82
2023/07/09 06:12:35;;;;;;;11.52;6.13;;;26.00;91.80;;;;;;5012240;28;20030;-77
2023/07/09 06:15:01;;;;;;;13.10;6.22;;;26.00;92.10;;;;;;5030730;28;20513;-82
2023/07/09 06:17:26;;;;;;;16.75;7.70;;;26.10;93.80;;;;;;5019041;28;20030;-77
2023/07/09 06:19:52;;;;;;;10.57;6.10;;;26.40;93.20;;;;;;5020413;28;20052;-81
2023/07/09 06:22:18;;;;;;;10.52;6.43;;;26.70;92.70;;;;;;5029779;28;20034;-78
2023/07/09 06:24:45;;;;;;;15.73;6.40;;;26.70;93.00;;;;;;5025812;28;20022;-84
2023/07/09 06:27:11;;;;;;;14.18;7.25;;;26.60;92.80;;;;;;5027422;28;20064;-79
2023/07/09 06:29:37;;;;;;;13.30;5.80;;;26.90;92.10;;;;;;5016552;28;20476;-77
2023/07/09 06:32:04;;;;;;;13.48;6.90;;;26.90;91.30;;;;;;5027257;28;20670;-82
2023/07/09 06:34:30;;;;;;;12.23;7.72;;;27.20;91.00;;;;;;5014208;28;20026;-77
2023/07/09 06:36:57;;;;;;;15.32;7.28;;;27.30;90.90;;;;;;5017890;28;20045;-81
2023/07/09 06:39:23;;;;;;;11.32;6.07;;;27.30;90.70;;;;;;5025143;28;20129;-81
2023/07/09 06:41:49;;;;;;;10.82;6.10;;;27.30;90.10;;;;;;5025048;28;20069;-77
2023/07/09 06:44:46;;;;;;;16.27;7.18;;;27.30;90.10;;;;;;5030592;28;20490;-78
2023/07/09 06:47:12;;;;;;;9.45;5.75;;;27.50;91.10;;;;;;5007862;28;20037;-77
2023/07/09 06:49:38;;;;;;;12.20;6.10;;;27.60;90.30;;;;;;5023822;28;20030;-81
2023/07/09 06:52:04;;;;;;;14.02;6.47;;;27.70;90.00;;;;;;5027564;28;20032;-80
2023/07/09 06:54:30;;;;;;;11.05;6.00;;;27.80;91.20;;;;;;5038463;28;20025;-86
2023/07/09 06:56:56;;;;;;;12.45;6.53;;;28.00;90.20;;;;;;5022891;28;20429;-80
2023/07/09 06:59:22;;;;;;;11.13;5.90;;;28.00;88.70;;;;;;5020025;28;20022;-76
2023/07/09 07:01:47;;;;;;;11.32;6.15;;;28.10;91.00;;;;;;5016089;28;20382;-79
2023/07/09 07:04:13;;;;;;;14.80;6.05;;;28.10;91.00;;;;;;5014931;28;20026;-77
2023/07/09 07:06:39;;;;;;;9.93;6.28;;;28.00;90.10;;;;;;5015719;28;20394;-83
2023/07/09 07:09:05;;;;;;;10.52;5.75;;;28.40;87.60;;;;;;5019067;28;20446;-79
2023/07/09 07:11:30;;;;;;;11.82;5.85;;;28.30;89.60;;;;;;5017097;28;20026;-76
2023/07/09 07:13:57;;;;;;;12.65;6.03;;;28.30;88.40;;;;;;5017143;28;20056;-83
2023/07/09 07:16:23;;;;;;;11.23;6.45;;;28.60;88.80;;;;;;5017504;28;20034;-83
2023/07/09 07:18:50;;;;;;;12.65;5.43;;;28.70;87.20;;;;;;5026833;28;20049;-83
2023/07/09 07:21:16;;;;;;;7.45;5.32;;;28.80;87.00;;;;;;5010933;28;20096;-80
2023/07/09 07:23:41;;;;;;;11.07;5.55;;;28.70;86.50;;;;;;5007988;28;20340;-87
2023/07/09 07:26:07;;;;;;;10.35;5.65;;;28.80;87.30;;;;;;5011785;28;20065;-88
2023/07/09 07:28:35;;;;;;;10.27;5.72;;;29.10;95.80;;;;;;5020046;28;20053;-87
2023/07/09 07:31:05;;;;;;;9.23;4.97;;;29.20;86.80;;;;;;5024158;28;20101;-89
2023/07/09 07:33:31;;;;;;;9.75;4.97;;;29.50;86.90;;;;;;5030665;28;20040;-77
2023/07/09 07:35:57;;;;;;;10.05;4.60;;;29.70;84.00;;;;;;5030172;28;20076;-79
2023/07/09 07:38:22;;;;;;;7.63;3.95;;;29.70;79.10;;;;;;5023399;28;20058;-80
2023/07/09 07:40:48;;;;;;;8.88;4.05;;;29.60;78.40;;;;;;5039143;28;20044;-85
2023/07/09 07:43:14;;;;;;;18.83;3.88;;;29.70;79.10;;;;;;5040774;28;20026;-82
2023/07/09 07:45:41;;;;;;;8.38;4.57;;;29.60;85.80;;;;;;5031802;28;20022;-86
2023/07/09 07:48:07;;;;;;;8.30;4.15;;;29.90;82.80;;;;;;5041249;28;20017;-82
2023/07/09 07:50:33;;;;;;;6.40;3.45;;;29.80;83.90;;;;;;5041156;28;20029;-78
2023/07/09 07:52:59;;;;;;;8.52;4.45;;;30.00;82.80;;;;;;5027312;28;20050;-87
2023/07/09 07:55:25;;;;;;;7.82;4.03;;;30.20;80.60;;;;;;5014167;28;20088;-76
2023/07/09 07:57:50;;;;;;;7.00;4.47;;;30.30;80.00;;;;;;5013810;28;20018;-88
2023/07/09 08:00:17;;;;;;;7.45;3.88;;;30.70;79.60;;;;;;5013239;28;20511;-86
2023/07/09 08:02:42;;;;;;;9.60;3.58;;;30.80;76.00;;;;;;5013019;28;20041;-81
2023/07/09 08:05:08;;;;;;;6.47;3.05;;;30.70;78.30;;;;;;5012812;28;20084;-87
2023/07/09 08:07:34;;;;;;;4.03;2.38;;;30.50;74.00;;;;;;5026507;28;20522;-86
2023/07/09 08:10:00;;;;;;;5.18;2.80;;;30.50;71.30;;;;;;5026750;28;20027;-77
2023/07/09 08:12:26;;;;;;;5.28;2.20;;;30.60;73.00;;;;;;5035243;28;20091;-75
2023/07/09 08:14:51;;;;;;;5.60;2.42;;;30.40;72.00;;;;;;5036042;28;20478;-84
2023/07/09 08:17:17;;;;;;;4.20;2.53;;;30.40;69.00;;;;;;5035404;28;20518;-81
2023/07/09 08:19:54;;;;;;;6.35;2.40;;;30.50;71.30;;;;;;5034395;28;20034;-79
2023/07/09 08:22:21;;;;;;;5.65;2.33;;;30.60;71.70;;;;;;5038114;28;20034;-86
2023/07/09 08:24:51;;;;;;;4.38;2.90;;;30.60;71.30;;;;;;5035874;28;20474;-77
2023/07/09 08:27:18;;;;;;;4.10;2.60;;;30.80;72.80;;;;;;5036950;28;20079;-85
2023/07/09 08:29:43;;;;;;;3.88;2.28;;;30.80;73.70;;;;;;5033362;28;20045;-85
2023/07/09 08:32:11;;;;;;;8.88;3.35;;;30.60;72.40;;;;;;5036205;28;20025;-84
2023/07/09 08:34:39;;;;;;;5.43;2.20;;;30.90;73.30;;;;;;5031985;28;20532;-85
2023/07/09 08:37:07;;;;;;;4.25;2.22;;;30.70;69.30;;;;;;5035070;28;20046;-84
2023/07/09 08:39:32;;;;;;;5.68;2.58;;;30.60;71.20;;;;;;5032372;28;20049;-82
2023/07/09 08:42:07;;;;;;;3.58;2.33;;;31.20;73.70;;;;;;5032166;28;20086;-87
2023/07/09 08:44:42;;;;;;;7.95;2.38;;;31.60;83.70;;;;;;5005746;28;20031;-83
2023/07/09 08:47:25;;;;;;;4.25;1.65;;;31.50;73.00;;;;;;5022065;28;20105;-83
2023/07/09 08:50:04;;;;;;;7.10;2.03;;;31.00;68.10;;;;;;5018926;28;20062;-81
2023/07/09 08:52:33;;;;;;;3.38;1.90;;;30.90;70.70;;;;;;5019399;28;20044;-79
2023/07/09 08:55:05;;;;;;;4.05;2.10;;;30.80;69.00;;;;;;5023183;28;20375;-78
2023/07/09 08:57:39;;;;;;;2.50;2.03;;;31.00;70.80;;;;;;5028154;28;20032;-81
2023/07/09 09:00:16;;;;;;;3.78;2.00;;;31.10;71.00;;;;;;5031716;28;20561;-81
2023/07/09 09:02:52;;;;;;;2.65;1.83;;;31.20;69.30;;;;;;5031022;28;20037;-81
2023/07/09 09:05:21;;;;;;;2.85;1.83;;;30.80;67.00;;;;;;5033086;28;20505;-80
2023/07/09 09:07:55;;;;;;;4.43;1.58;;;30.40;69.90;;;;;;5035459;28;20056;-78
2023/07/09 09:10:33;;;;;;;3.42;2.30;;;30.40;67.60;;;;;;5035490;28;20030;-79
2023/07/09 09:13:04;;;;;;;4.20;2.72;;;30.40;67.60;;;;;;5035623;28;20100;-79
2023/07/09 09:15:31;;;;;;;8.13;3.65;;;30.40;68.10;;;;;;5035338;28;20038;-80
2023/07/09 09:18:12;;;;;;;4.25;3.10;;;30.40;69.90;;;;;;5035374;28;20044;-81
2023/07/09 09:20:40;;;;;;;3.10;1.95;;;30.40;70.90;;;;;;5035434;28;20037;-79
2023/07/09 09:23:06;;;;;;;3.80;2.17;;;30.40;70.30;;;;;;5020832;28;20421;-78
2023/07/09 09:25:35;;;;;;;3.25;2.15;;;29.90;68.10;;;;;;5028770;28;20152;-82
2023/07/09 09:28:01;;;;;;;3.20;1.90;;;29.90;68.50;;;;;;5015739;28;20510;-80
2023/07/09 09:30:29;;;;;;;2.40;1.60;;;29.90;67.30;;;;;;5035308;28;20101;-81
2023/07/09 09:33:08;;;;;;;5.20;1.80;;;30.10;68.20;;;;;;5016404;28;20360;-82
2023/07/09 09:35:36;;;;;;;3.60;2.00;;;30.10;66.80;;;;;;5015811;28;20072;-80
2023/07/09 09:38:09;;;;;;;2.47;1.98;;;30.50;68.90;;;;;;5015080;28;20125;-81
2023/07/09 09:40:35;;;;;;;7.13;2.75;;;30.20;66.80;;;;;;5015009;28;20048;-78
2023/07/09 09:43:02;;;;;;;3.03;2.17;;;30.40;67.80;;;;;;5015348;28;20032;-81
2023/07/09 09:45:33;;;;;;;3.30;2.17;;;30.10;69.80;;;;;;5017247;28;20029;-78
2023/07/09 09:48:00;;;;;;;;;;;30.10;69.10;;;;;;5018532;28;20040;-79
2023/07/09 09:50:31;;;;;;;5.13;2.42;;;30.40;67.60;;;;;;5032458;28;19909;-81
2023/07/09 09:53:01;;;;;;;4.82;2.38;;;29.90;67.20;;;;;;5014463;28;20033;-77
2023/07/09 09:55:32;;;;;;;3.63;2.45;;;30.10;70.20;;;;;;5030106;28;20065;-78
2023/07/09 09:57:58;;;;;;;11.05;2.53;;;30.30;69.90;;;;;;5030692;28;20026;-79
2023/07/09 10:00:28;;;;;;;5.03;2.60;;;30.50;70.40;;;;;;5022670;28;20494;-76
2023/07/09 10:03:03;;;;;;;7.85;3.28;;;30.60;71.00;;;;;;5034717;28;20437;-78
2023/07/09 10:05:38;;;;;;;4.38;2.45;;;30.60;69.60;;;;;;5034346;28;20029;-80
2023/07/09 10:08:41;;;;;;;5.53;2.60;;;30.40;69.30;;;;;;5034797;28;20033;-79
2023/07/09 10:11:42;;;;;;;3.90;2.08;;;30.50;68.40;;;;;;5006404;28;20467;-79
2023/07/09 10:14:39;;;;;;;3.88;2.20;;;30.40;68.50;;;;;;5024434;28;20029;-80
2023/07/09 10:17:15;;;;;;;2.88;2.03;;;30.40;68.10;;;;;;5033139;28;20032;-80
2023/07/09 10:19:59;;;;;;;4.53;2.30;;;30.40;68.30;;;;;;5034322;28;20048;-81
2023/07/09 10:22:40;;;;;;;4.57;2.65;;;30.60;71.90;;;;;;5034920;28;20061;-80
2023/07/09 10:25:41;;;;;;;4.93;2.55;;;30.50;70.90;;;;;;5022426;28;20049;-79
2023/07/09 10:28:06;;;;;;;3.83;2.45;;;30.40;67.90;;;;;;5030865;28;20030;-81
2023/07/09 10:30:42;;;;;;;3.58;2.38;;;30.00;67.00;;;;;;5017475;28;20030;-78
2023/07/09 10:33:10;;;;;;;4.25;2.25;;;30.30;67.40;;;;;;5014319;28;20030;-79
2023/07/09 10:36:00;;;;;;;7.57;2.20;;;30.50;70.00;;;;;;5008378;28;20022;-79
2023/07/09 10:38:42;;;;;;;3.72;2.28;;;30.50;67.60;;;;;;5014150;28;20046;-79
2023/07/09 10:41:12;;;;;;;3.25;2.20;;;30.60;68.40;;;;;;5022454;28;20497;-81
2023/07/09 10:44:16;;;;;;;2.90;2.10;;;30.40;66.20;;;;;;5033536;28;20041;-79
2023/07/09 10:46:47;;;;;;;4.55;2.50;;;30.00;69.50;;;;;;5026329;28;20025;-80
2023/07/09 10:49:17;;;;;;;5.97;2.05;;;30.30;69.40;;;;;;5033748;28;20415;-79
2023/07/09 10:52:13;;;;;;;3.60;2.40;;;30.50;68.00;;;;;;5024913;28;20026;-78
2023/07/09 10:54:55;;;;;;;5.18;2.47;;;30.70;67.90;;;;;;5026536;28;20025;-79
2023/07/09 10:58:02;;;;;;;5.43;2.28;;;30.60;66.90;;;;;;5033971;28;20033;-79
2023/07/09 11:00:39;;;;;;;4.97;2.28;;;30.40;69.00;;;;;;5003686;28;20037;-79
2023/07/09 11:03:43;;;;;;;8.95;2.50;;;30.50;68.50;;;;;;5028627;28;20419;-80
2023/07/09 11:06:25;;;;;;;4.38;2.35;;;30.70;67.80;;;;;;5032711;28;20486;-77
2023/07/09 11:08:55;;;;;;;6.40;2.28;;;30.80;67.50;;;;;;5033153;28;20026;-80
2023/07/09 11:11:40;;;;;;;4.17;2.63;;;30.70;69.70;;;;;;5028046;28;20084;-78
2023/07/09 11:14:29;;;;;;;6.35;2.30;;;30.70;70.20;;;;;;5026459;28;20052;-76
2023/07/09 11:16:57;;;;;;;7.20;2.25;;;30.40;69.10;;;;;;5033031;28;20030;-80
2023/07/09 11:19:24;;;;;;;3.53;2.50;;;30.30;66.90;;;;;;5033343;28;20172;-76
2023/07/09 11:22:13;;;;;;;4.43;2.92;;;30.50;67.30;;;;;;5021845;28;20044;-77
2023/07/09 11:25:05;;;;;;;6.05;2.60;;;30.50;69.00;;;;;;5025175;28;20482;-79
2023/07/09 11:27:31;;;;;;;;;;;30.60;68.90;;;;;;5033193;28;20076;-78
2023/07/09 11:30:05;;;;;;;5.35;2.50;;;30.60;66.80;;;;;;5033011;28;19905;-77
2023/07/09 11:32:30;;;;;;;4.85;2.30;;;30.40;68.60;;;;;;5017621;28;20029;-77
2023/07/09 11:35:07;;;;;;;3.72;2.28;;;30.30;65.80;;;;;;5029226;28;20034;-78
2023/07/09 11:37:45;;;;;;;3.88;1.80;;;30.40;66.80;;;;;;5028147;28;20099;-79
2023/07/09 11:40:12;;;;;;;3.83;1.92;;;30.30;66.20;;;;;;5021141;28;20026;-81
2023/07/09 11:42:59;;;;;;;7.18;2.35;;;30.40;66.20;;;;;;5017298;28;20036;-77
2023/07/09 11:45:31;;;;;;;4.85;1.85;;;30.50;65.90;;;;;;5022390;28;20044;-81
2023/07/09 11:48:27;;;;;;;4.70;2.33;;;30.60;68.60;;;;;;5022650;28;20045;-82
2023/07/09 11:50:54;;;;;;;3.90;2.58;;;30.50;67.60;;;;;;5032001;28;20037;-79
2023/07/09 11:53:23;;;;;;;3.70;2.25;;;30.00;66.40;;;;;;5032461;28;20013;-79
2023/07/09 11:55:49;;;;;;;5.32;2.05;;;30.20;67.40;;;;;;5020439;28;20033;-81
2023/07/09 11:58:17;;;;;;;3.85;2.78;;;30.20;66.60;;;;;;5032519;28;20025;-83
2023/07/09 12:00:45;;;;;;;6.30;2.22;;;30.40;66.40;;;;;;5019814;28;20045;-81
2023/07/09 12:03:23;;;;;;;4.63;2.22;;;30.40;68.10;;;;;;5022247;28;20018;-81
2023/07/09 12:06:03;;;;;;;3.45;2.30;;;30.30;66.90;;;;;;5020722;28;20037;-84
2023/07/09 12:08:38;;;;;;;4.80;2.10;;;30.40;65.60;;;;;;5014381;28;20172;-83
2023/07/09 12:11:05;;;;;;;3.90;2.13;;;30.30;66.50;;;;;;5026752;28;20034;-81
2023/07/09 12:13:38;;;;;;;8.15;2.38;;;30.40;67.60;;;;;;5007893;28;20491;-79
2023/07/09 12:16:39;;;;;;;3.63;2.30;;;30.50;69.20;;;;;;5024753;28;20113;-81
2023/07/09 12:19:06;;;;;;;6.18;2.08;;;30.70;68.80;;;;;;5029852;22;20186;-77
2023/07/09 12:21:37;;;;;;;5.32;1.90;;;30.70;67.90;;;;;;4996218;28;20053;-75
2023/07/09 12:26:31;;;;;;;5.43;2.20;;;30.40;67.40;;;;;;5066337;22;20141;-78
2023/07/09 12:29:05;;;;;;;2.58;1.98;;;30.50;68.00;;;;;;4996149;28;20030;-77
2023/07/09 12:31:31;;;;;;;3.20;2.35;;;30.70;67.10;;;;;;5022987;28;20030;-80
2023/07/09 12:33:58;;;;;;;4.55;2.78;;;30.60;68.00;;;;;;5025034;28;20098;-77
2023/07/09 12:36:26;;;;;;;4.18;2.35;;;30.70;72.00;;;;;;5032592;28;20205;-78
2023/07/09 12:38:56;;;;;;;6.75;1.92;;;30.80;70.70;;;;;;5032318;28;20037;-77
2023/07/09 12:41:40;;;;;;;4.18;2.55;;;30.80;69.00;;;;;;5018484;28;20036;-80
2023/07/09 12:44:17;;;;;;;5.72;2.90;;;30.60;67.90;;;;;;5031433;28;20029;-78
2023/07/09 12:46:45;;;;;;;3.97;2.22;;;30.50;69.50;;;;;;5031529;28;20044;-80
2023/07/09 12:49:27;;;;;;;3.75;2.28;;;30.00;67.40;;;;;;5031785;28;20606;-78
2023/07/09 12:52:03;;;;;;;3.67;2.58;;;30.20;66.90;;;;;;5022904;28;20608;-81
2023/07/09 12:54:30;;;;;;;6.60;2.17;;;30.30;67.80;;;;;;5028085;28;20029;-81
2023/07/09 12:56:59;;;;;;;3.25;2.10;;;30.30;67.80;;;;;;5016802;28;20018;-79
2023/07/09 12:59:37;;;;;;;3.17;2.20;;;30.10;68.10;;;;;;5024720;28;20051;-81